Time;durP1;ratioP1;P1;durP2;ratioP2;P2;SDS_P1;SDS_P2;PMS_P1;PMS_P2;Temp;Humidity;BMP_temperature;BMP_pressure;BME280_temperature;BME280_humidity;BME280_pressure;Samples;Min_cycle;Max_cycle;Signal;HPM_P1;HPM_P2
2020/12/18 00:01:38;;;;;;;4.18;2.70;;;9.80;99.90;;;;;;4110760;28;20145;-84
2020/12/18 00:03:39;;;;;;;7.03;3.85;;;9.70;99.90;;;;;;4131131;28;20129;-86
2020/12/18 00:05:42;;;;;;;5.15;2.67;;;9.70;99.90;;;;;;4115141;28;20058;-85
2020/12/18 00:07:43;;;;;;;3.72;3.00;;;9.80;99.90;;;;;;4105786;28;20059;-84
2020/12/18 00:09:44;;;;;;;3.33;2.75;;;9.70;99.90;;;;;;4108164;28;20503;-87
2020/12/18 00:11:46;;;;;;;6.32;3.08;;;9.70;99.90;;;;;;4114805;28;20047;-84
2020/12/18 00:13:47;;;;;;;7.78;4.22;;;9.70;99.90;;;;;;4090130;28;20071;-85
2020/12/18 00:15:49;;;;;;;3.70;3.22;;;9.60;99.90;;;;;;4091212;28;20057;-85
2020/12/18 00:17:50;;;;;;;6.07;4.22;;;9.70;99.90;;;;;;4084739;28;20043;-84
2020/12/18 00:19:51;;;;;;;9.40;5.05;;;9.60;99.90;;;;;;4129119;28;20156;-86
2020/12/18 00:21:56;;;;;;;6.95;4.68;;;9.60;99.90;;;;;;4095820;28;20047;-84
2020/12/18 00:23:57;;;;;;;3.80;2.67;;;9.60;99.90;;;;;;4097389;28;20141;-86
2020/12/18 00:25:58;;;;;;;4.35;2.72;;;9.60;99.90;;;;;;4104151;28;20059;-84
2020/12/18 00:28:00;;;;;;;7.15;3.30;;;9.60;99.90;;;;;;4114876;28;20054;-84
2020/12/18 00:30:01;;;;;;;3.78;2.67;;;9.60;99.90;;;;;;4098568;28;20059;-84
2020/12/18 00:32:04;;;;;;;6.80;3.33;;;9.60;99.90;;;;;;4114642;28;20068;-84
2020/12/18 00:34:05;;;;;;;5.32;2.47;;;9.60;99.90;;;;;;4098827;28;20071;-84
2020/12/18 00:36:10;;;;;;;4.25;3.85;;;9.60;99.90;;;;;;4130446;28;20046;-84
2020/12/18 00:38:11;;;;;;;4.65;3.03;;;9.70;99.90;;;;;;4095782;28;20051;-85
2020/12/18 00:40:13;;;;;;;7.05;3.88;;;9.60;99.90;;;;;;4124535;28;20058;-84
2020/12/18 00:42:14;;;;;;;6.80;3.33;;;9.60;99.90;;;;;;4101681;28;20050;-84
2020/12/18 00:44:15;;;;;;;10.43;4.22;;;9.60;99.90;;;;;;4101973;28;20142;-84
2020/12/18 00:46:16;;;;;;;3.97;2.28;;;9.60;99.90;;;;;;4122478;28;20058;-84
2020/12/18 00:48:18;;;;;;;3.60;2.78;;;9.70;99.90;;;;;;4103947;28;20065;-84
2020/12/18 00:50:19;;;;;;;12.10;3.92;;;9.70;99.90;;;;;;4130779;28;20137;-84
2020/12/18 00:52:23;;;;;;;5.22;3.25;;;9.70;99.90;;;;;;4092427;28;20551;-83
2020/12/18 00:54:24;;;;;;;4.47;3.07;;;9.60;99.90;;;;;;4104968;28;20055;-84
2020/12/18 00:56:26;;;;;;;6.43;3.40;;;9.60;99.90;;;;;;4098564;28;20051;-85
2020/12/18 00:58:27;;;;;;;3.78;2.85;;;9.50;99.90;;;;;;4113949;28;20053;-84
2020/12/18 01:00:28;;;;;;;7.40;3.92;;;9.60;99.90;;;;;;4098412;28;20097;-84
2020/12/18 01:02:29;;;;;;;4.55;3.25;;;9.50;99.90;;;;;;4083937;29;20062;-84
2020/12/18 01:04:31;;;;;;;5.25;3.03;;;9.50;99.90;;;;;;4096296;28;20047;-85
2020/12/18 01:06:32;;;;;;;2.30;1.77;;;9.50;99.90;;;;;;4102855;28;20058;-85
2020/12/18 01:08:33;;;;;;;5.13;3.08;;;9.50;99.90;;;;;;4113756;28;20120;-84
2020/12/18 01:10:34;;;;;;;3.60;2.90;;;9.50;99.90;;;;;;4097678;28;20052;-84
2020/12/18 01:12:35;;;;;;;2.83;2.38;;;9.40;99.90;;;;;;4087559;29;20142;-83
2020/12/18 01:14:37;;;;;;;4.70;3.42;;;9.50;99.90;;;;;;4098657;28;20055;-84
2020/12/18 01:16:38;;;;;;;5.13;2.92;;;9.50;99.90;;;;;;4098229;28;20058;-84
2020/12/18 01:18:39;;;;;;;7.85;3.15;;;9.50;99.90;;;;;;4113741;28;20522;-85
2020/12/18 01:20:54;;;;;;;1.95;1.77;;;9.50;99.90;;;;;;4088089;28;20070;-84
2020/12/18 01:22:55;;;;;;;2.75;2.55;;;9.60;99.90;;;;;;4098330;28;20526;-84
2020/12/18 01:24:56;;;;;;;3.83;3.50;;;9.60;99.90;;;;;;4108474;28;20565;-84
2020/12/18 01:26:57;;;;;;;3.97;3.08;;;9.60;99.90;;;;;;4115629;28;20039;-84
2020/12/18 01:28:59;;;;;;;5.40;2.63;;;9.60;99.90;;;;;;4130051;28;20054;-84
2020/12/18 01:31:00;;;;;;;9.38;3.42;;;9.60;99.90;;;;;;4129933;28;20512;-84
2020/12/18 01:33:01;;;;;;;6.75;4.20;;;9.60;99.90;;;;;;4129551;28;20132;-85
2020/12/18 01:35:03;;;;;;;5.80;3.20;;;9.60;99.90;;;;;;4130483;28;20054;-84
2020/12/18 01:37:04;;;;;;;7.70;3.90;;;9.60;99.90;;;;;;4094733;28;20477;-84
2020/12/18 01:39:05;;;;;;;7.43;2.88;;;9.60;99.90;;;;;;4101979;28;20050;-84
2020/12/18 01:41:07;;;;;;;3.97;2.38;;;9.60;99.90;;;;;;4094518;28;20063;-84
2020/12/18 01:43:09;;;;;;;11.15;4.68;;;9.60;99.90;;;;;;4093850;28;20064;-84
2020/12/18 01:45:11;;;;;;;3.75;2.20;;;9.60;99.90;;;;;;4113492;28;20043;-84
2020/12/18 01:47:32;;;;;;;5.10;2.75;;;9.60;99.90;;;;;;4101945;28;20055;-84
2020/12/18 01:49:34;;;;;;;12.98;5.78;;;9.60;99.90;;;;;;4112437;28;20085;-84
2020/12/18 01:51:35;;;;;;;6.78;4.43;;;9.60;99.90;;;;;;4096664;28;20051;-84
2020/12/18 01:53:37;;;;;;;6.55;2.83;;;9.60;99.90;;;;;;4113780;28;20051;-84
2020/12/18 01:55:39;;;;;;;7.88;3.00;;;9.60;99.90;;;;;;4098209;28;20575;-84
2020/12/18 01:57:40;;;;;;;7.22;4.80;;;9.60;99.90;;;;;;4093253;28;20134;-85
2020/12/18 01:59:41;;;;;;;6.68;4.68;;;9.60;99.90;;;;;;4098043;28;20109;-84
2020/12/18 02:01:42;;;;;;;7.65;4.57;;;9.60;99.90;;;;;;4092161;28;20516;-84
2020/12/18 02:03:44;;;;;;;9.20;3.47;;;9.60;99.90;;;;;;4097218;28;20070;-84
2020/12/18 02:05:45;;;;;;;6.90;3.67;;;9.50;99.90;;;;;;4098377;28;20060;-84
2020/12/18 02:08:00;;;;;;;6.60;2.97;;;9.40;99.90;;;;;;4129730;28;20050;-84
2020/12/18 02:10:01;;;;;;;8.23;5.40;;;9.40;99.90;;;;;;4094965;28;20048;-84
2020/12/18 02:12:02;;;;;;;3.78;3.28;;;9.40;99.90;;;;;;4100888;28;20047;-84
2020/12/18 02:14:05;;;;;;;6.70;4.00;;;9.30;99.90;;;;;;4130239;28;20056;-84
2020/12/18 02:16:06;;;;;;;5.10;2.83;;;9.40;99.90;;;;;;4113038;28;20523;-84
2020/12/18 02:18:07;;;;;;;6.80;3.88;;;9.40;99.90;;;;;;4113527;28;20051;-84
2020/12/18 02:20:09;;;;;;;7.82;4.82;;;9.50;99.90;;;;;;4114439;28;20149;-84
2020/12/18 02:22:22;;;;;;;7.28;3.63;;;9.40;99.90;;;;;;4112216;28;20073;-84
2020/12/18 02:24:26;;;;;;;4.95;3.42;;;9.50;99.90;;;;;;4099778;28;20047;-84
2020/12/18 02:26:28;;;;;;;5.07;3.03;;;9.50;99.90;;;;;;4086601;29;20044;-84
2020/12/18 02:28:29;;;;;;;5.07;3.92;;;9.50;99.90;;;;;;4109002;28;20085;-84
2020/12/18 02:30:30;;;;;;;8.95;2.67;;;9.50;99.90;;;;;;4107394;28;20446;-84
2020/12/18 02:32:31;;;;;;;2.47;2.17;;;9.50;99.90;;;;;;4086039;29;20062;-84
2020/12/18 02:34:34;;;;;;;6.25;3.35;;;9.50;99.90;;;;;;4132813;28;20050;-84
2020/12/18 02:36:35;;;;;;;9.60;4.90;;;9.50;99.90;;;;;;4116517;28;20057;-84
2020/12/18 02:38:36;;;;;;;6.57;3.47;;;9.50;99.90;;;;;;4116724;28;20054;-84
2020/12/18 02:40:37;;;;;;;6.97;4.15;;;9.50;99.90;;;;;;4108120;28;20130;-84
2020/12/18 02:42:39;;;;;;;12.00;3.97;;;9.50;99.90;;;;;;4124698;28;20050;-84
2020/12/18 02:44:40;;;;;;;7.80;3.42;;;9.40;99.90;;;;;;4117069;28;20047;-84
2020/12/18 02:46:41;;;;;;;7.75;4.07;;;9.40;99.90;;;;;;4116115;28;20578;-84
2020/12/18 02:48:43;;;;;;;8.35;5.18;;;9.40;99.90;;;;;;4132347;28;20530;-84
2020/12/18 02:50:46;;;;;;;5.93;2.63;;;9.40;99.90;;;;;;4116060;28;20057;-84
2020/12/18 02:52:47;;;;;;;4.90;2.30;;;9.40;99.90;;;;;;4107711;28;20047;-84
2020/12/18 02:54:48;;;;;;;7.72;3.92;;;9.30;99.90;;;;;;4109331;28;20061;-84
2020/12/18 02:56:49;;;;;;;3.85;2.58;;;9.40;99.90;;;;;;4099932;28;20633;-84
2020/12/18 02:58:51;;;;;;;6.68;3.38;;;9.40;99.90;;;;;;4116194;28;20546;-84
2020/12/18 03:00:52;;;;;;;15.40;6.53;;;9.40;99.90;;;;;;4095755;28;20048;-84
2020/12/18 03:02:53;;;;;;;6.03;3.95;;;9.40;99.90;;;;;;4130570;28;20054;-86
2020/12/18 03:04:55;;;;;;;5.30;3.53;;;9.40;99.90;;;;;;4112451;28;20058;-84
2020/12/18 03:06:56;;;;;;;5.13;3.88;;;9.30;99.90;;;;;;4099784;28;20044;-84
2020/12/18 03:08:57;;;;;;;7.70;4.68;;;9.30;99.90;;;;;;4102353;28;20154;-84
2020/12/18 03:10:58;;;;;;;9.82;4.03;;;9.30;99.90;;;;;;4117548;28;20047;-84
2020/12/18 03:13:00;;;;;;;7.57;4.00;;;9.30;99.90;;;;;;4099406;28;20055;-84
2020/12/18 03:15:01;;;;;;;4.20;2.97;;;9.20;99.90;;;;;;4084960;28;20077;-84
2020/12/18 03:17:03;;;;;;;6.63;4.60;;;9.30;99.90;;;;;;4105103;28;20507;-84
2020/12/18 03:19:04;;;;;;;7.32;4.07;;;9.30;99.90;;;;;;4106973;28;20519;-84
2020/12/18 03:21:06;;;;;;;4.90;2.75;;;9.40;99.90;;;;;;4099698;28;20044;-84
2020/12/18 03:23:07;;;;;;;4.95;3.55;;;9.40;99.90;;;;;;4148636;28;20053;-84
2020/12/18 03:25:08;;;;;;;12.82;4.03;;;9.40;99.90;;;;;;4127380;28;20065;-84
2020/12/18 03:27:10;;;;;;;7.57;4.57;;;9.50;99.90;;;;;;4088005;29;20051;-84
2020/12/18 03:29:11;;;;;;;11.48;4.40;;;9.50;99.90;;;;;;4131915;28;20506;-84
2020/12/18 03:31:13;;;;;;;13.25;4.07;;;9.50;99.90;;;;;;4112532;28;20065;-84
2020/12/18 03:33:14;;;;;;;11.32;5.05;;;9.50;99.90;;;;;;4098503;28;20047;-84
2020/12/18 03:35:16;;;;;;;5.75;3.90;;;9.40;99.90;;;;;;4116107;28;20047;-84
2020/12/18 03:37:18;;;;;;;6.05;3.15;;;9.40;99.90;;;;;;4131201;28;20068;-84
2020/12/18 03:39:19;;;;;;;11.55;5.18;;;9.40;99.90;;;;;;4098026;28;20044;-84
2020/12/18 03:41:20;;;;;;;5.88;3.80;;;9.30;99.90;;;;;;4113235;28;20055;-84
2020/12/18 03:43:22;;;;;;;7.85;3.97;;;9.30;99.90;;;;;;4099139;28;20061;-84
2020/12/18 03:45:23;;;;;;;3.58;2.38;;;9.30;99.90;;;;;;4131398;28;20057;-84
2020/12/18 03:47:24;;;;;;;10.07;4.90;;;9.30;99.90;;;;;;4131733;28;20054;-83
2020/12/18 03:49:26;;;;;;;8.18;5.03;;;9.40;99.90;;;;;;4131813;28;20052;-83
2020/12/18 03:51:27;;;;;;;14.82;7.38;;;9.30;99.90;;;;;;4099158;29;20066;-84
2020/12/18 03:53:28;;;;;;;3.47;3.00;;;9.30;99.90;;;;;;4115768;28;20137;-83
2020/12/18 03:55:29;;;;;;;5.65;3.53;;;9.30;99.90;;;;;;4131289;28;20053;-83
2020/12/18 03:57:30;;;;;;;5.35;4.07;;;9.40;99.90;;;;;;4099497;28;20110;-84
2020/12/18 03:59:32;;;;;;;12.98;4.18;;;9.40;99.90;;;;;;4085036;29;20051;-84
2020/12/18 04:01:33;;;;;;;9.70;4.22;;;9.40;99.90;;;;;;4118317;28;20129;-83
2020/12/18 04:03:34;;;;;;;4.53;3.85;;;9.40;99.90;;;;;;4084481;29;20082;-84
2020/12/18 04:05:36;;;;;;;5.35;3.58;;;9.40;99.90;;;;;;4131474;28;20490;-84
2020/12/18 04:07:37;;;;;;;9.45;3.25;;;9.50;99.90;;;;;;4098947;28;20047;-83
2020/12/18 04:09:40;;;;;;;7.35;3.60;;;9.40;99.90;;;;;;4098934;28;20055;-84
2020/12/18 04:11:41;;;;;;;6.68;3.92;;;9.40;99.90;;;;;;4098942;28;20051;-84
2020/12/18 04:13:43;;;;;;;7.55;4.60;;;9.40;99.90;;;;;;4099614;28;20508;-84
2020/12/18 04:15:44;;;;;;;4.75;3.33;;;9.50;99.90;;;;;;4098782;28;20074;-83
2020/12/18 04:17:45;;;;;;;4.10;2.92;;;9.50;99.90;;;;;;4114958;28;20046;-84
2020/12/18 04:19:46;;;;;;;9.80;5.53;;;9.50;99.90;;;;;;4105882;28;20130;-84
2020/12/18 04:21:48;;;;;;;7.13;4.22;;;9.50;99.90;;;;;;4108324;28;20133;-84
2020/12/18 04:23:49;;;;;;;6.68;4.05;;;9.40;99.90;;;;;;4114983;28;20614;-85
2020/12/18 04:25:51;;;;;;;9.75;4.20;;;9.40;99.90;;;;;;4105658;28;20138;-84
2020/12/18 04:27:52;;;;;;;5.22;3.92;;;9.40;99.90;;;;;;4122852;28;20129;-83
2020/12/18 04:29:53;;;;;;;5.28;3.97;;;9.40;99.90;;;;;;4084881;28;20047;-83
2020/12/18 04:31:55;;;;;;;3.70;3.40;;;9.50;99.90;;;;;;4099139;28;20055;-84
2020/12/18 04:33:56;;;;;;;10.32;5.93;;;9.40;99.90;;;;;;4097638;28;20057;-83
2020/12/18 04:35:57;;;;;;;12.70;4.40;;;9.50;99.90;;;;;;4114915;28;20065;-83
2020/12/18 04:37:59;;;;;;;10.65;4.38;;;9.50;99.90;;;;;;4098849;28;20078;-84
2020/12/18 04:40:00;;;;;;;8.35;4.97;;;9.50;99.90;;;;;;4111904;28;20516;-83
2020/12/18 04:42:02;;;;;;;11.43;3.85;;;9.60;99.90;;;;;;4086360;28;20540;-84
2020/12/18 04:44:03;;;;;;;14.98;5.05;;;9.70;99.90;;;;;;4114909;28;20051;-84
2020/12/18 04:46:05;;;;;;;3.08;2.47;;;9.70;99.90;;;;;;4111063;28;20051;-84
2020/12/18 04:48:08;;;;;;;10.93;3.75;;;9.60;99.90;;;;;;4086947;28;20082;-84
2020/12/18 04:50:09;;;;;;;7.57;4.05;;;9.50;99.90;;;;;;4095274;28;20047;-83
2020/12/18 04:52:12;;;;;;;4.72;2.65;;;9.50;99.90;;;;;;4113905;28;20523;-84
2020/12/18 04:54:13;;;;;;;7.85;3.33;;;9.50;99.90;;;;;;4098769;28;20047;-83
2020/12/18 04:56:19;;;;;;;16.15;5.50;;;9.50;99.90;;;;;;4101992;28;20055;-84
2020/12/18 04:58:24;;;;;;;6.25;3.63;;;9.50;99.90;;;;;;4122774;28;20132;-84
2020/12/18 05:00:25;;;;;;;10.35;6.13;;;9.50;99.90;;;;;;4105043;28;20457;-83
2020/12/18 05:02:27;;;;;;;7.18;4.10;;;9.50;99.90;;;;;;4130562;28;20050;-84
2020/12/18 05:04:29;;;;;;;6.93;4.50;;;9.50;99.90;;;;;;4103978;28;20422;-83
2020/12/18 05:06:30;;;;;;;5.90;3.47;;;9.50;99.90;;;;;;4103622;28;20055;-83
2020/12/18 05:08:32;;;;;;;7.25;4.07;;;9.50;99.90;;;;;;4099939;28;20051;-84
2020/12/18 05:10:33;;;;;;;6.90;3.50;;;9.50;99.90;;;;;;4113704;28;20054;-84
2020/12/18 05:12:35;;;;;;;8.73;4.53;;;9.60;99.90;;;;;;4130067;28;20121;-83
2020/12/18 05:14:36;;;;;;;4.22;2.97;;;9.60;99.90;;;;;;4114497;28;20518;-83
2020/12/18 05:16:38;;;;;;;9.55;4.90;;;9.60;99.90;;;;;;4114416;28;20047;-83
2020/12/18 05:18:40;;;;;;;4.32;3.03;;;9.70;99.90;;;;;;4112165;28;20129;-83
2020/12/18 05:20:41;;;;;;;8.18;3.22;;;9.70;99.90;;;;;;4114183;28;20510;-83
2020/12/18 05:22:42;;;;;;;5.32;2.58;;;9.70;99.90;;;;;;4109754;28;20470;-83
2020/12/18 05:24:43;;;;;;;6.05;3.28;;;9.80;99.90;;;;;;4112965;28;20100;-83
2020/12/18 05:26:45;;;;;;;9.40;4.72;;;9.80;99.90;;;;;;4099575;28;20458;-84
2020/12/18 05:28:49;;;;;;;9.23;5.45;;;9.70;99.90;;;;;;4109902;28;20515;-84
2020/12/18 05:30:54;;;;;;;10.80;2.70;;;9.70;99.90;;;;;;4132822;28;20084;-84
2020/12/18 05:32:56;;;;;;;;;;;9.70;99.90;;;;;;4112151;28;20047;-84
2020/12/18 05:34:58;;;;;;;4.97;2.65;;;9.70;99.90;;;;;;4113211;28;19945;-84
2020/12/18 05:37:00;;;;;;;5.93;4.38;;;9.60;99.90;;;;;;4113672;28;20070;-84
2020/12/18 05:39:02;;;;;;;13.60;4.60;;;9.60;99.90;;;;;;4113815;28;20043;-84
2020/12/18 05:41:04;;;;;;;11.10;5.78;;;9.60;99.90;;;;;;4109844;28;20063;-84
2020/12/18 05:43:07;;;;;;;6.22;2.92;;;9.60;99.90;;;;;;4094390;28;20051;-84
2020/12/18 05:45:15;;;;;;;7.70;3.80;;;9.70;99.90;;;;;;4101981;28;20047;-83
2020/12/18 05:47:17;;;;;;;11.18;4.63;;;9.70;99.90;;;;;;4130065;28;20050;-83
2020/12/18 05:49:29;;;;;;;5.47;2.33;;;9.70;99.90;;;;;;4108471;28;20055;-84
2020/12/18 05:51:31;;;;;;;7.32;4.55;;;9.70;99.90;;;;;;4089034;28;20190;-84
2020/12/18 05:53:52;;;;;;;5.47;3.30;;;9.70;99.90;;;;;;4101777;28;20061;-84
2020/12/18 05:55:53;;;;;;;7.80;3.22;;;9.70;99.90;;;;;;4114185;28;20055;-83
2020/12/18 05:57:55;;;;;;;9.23;3.83;;;9.70;99.90;;;;;;4100676;28;20145;-84
2020/12/18 05:59:56;;;;;;;7.63;3.65;;;9.70;99.90;;;;;;4101342;28;20878;-84
2020/12/18 06:01:59;;;;;;;5.75;3.40;;;9.70;99.90;;;;;;4105512;28;20059;-84
2020/12/18 06:04:02;;;;;;;7.07;4.55;;;9.70;99.90;;;;;;4111392;28;20051;-84
2020/12/18 06:06:05;;;;;;;7.40;3.50;;;9.70;99.90;;;;;;4133020;28;20066;-83
2020/12/18 06:08:17;;;;;;;6.53;4.20;;;9.80;99.90;;;;;;4089546;28;20520;-84
2020/12/18 06:10:23;;;;;;;6.15;3.85;;;9.70;99.90;;;;;;4098247;28;20066;-84
2020/12/18 06:12:24;;;;;;;5.55;2.88;;;9.70;99.90;;;;;;4099721;28;20053;-84
2020/12/18 06:14:26;;;;;;;7.50;3.88;;;9.80;99.90;;;;;;4100522;28;20047;-84
2020/12/18 06:16:28;;;;;;;5.15;3.72;;;9.70;99.90;;;;;;4115625;28;20070;-84
2020/12/18 06:18:30;;;;;;;5.07;3.58;;;9.70;99.90;;;;;;4115754;28;20062;-85
2020/12/18 06:20:33;;;;;;;6.55;4.32;;;9.70;99.90;;;;;;4114369;28;20563;-84
2020/12/18 06:22:34;;;;;;;5.63;4.88;;;9.70;99.90;;;;;;4100341;28;20610;-84
2020/12/18 06:24:39;;;;;;;5.95;3.88;;;9.80;99.90;;;;;;4095332;28;20126;-84
2020/12/18 06:26:40;;;;;;;4.90;3.60;;;9.70;99.90;;;;;;4101243;28;20085;-84
2020/12/18 06:28:42;;;;;;;3.83;3.25;;;9.70;99.90;;;;;;4124502;28;20063;-85
2020/12/18 06:30:43;;;;;;;4.30;3.20;;;9.70;99.90;;;;;;4108517;28;20043;-84
2020/12/18 06:32:45;;;;;;;6.63;3.45;;;9.70;99.90;;;;;;4087552;28;20049;-84
2020/12/18 06:34:46;;;;;;;9.90;2.97;;;9.70;99.90;;;;;;4116731;28;20053;-82
2020/12/18 06:36:53;;;;;;;5.07;2.95;;;9.70;99.90;;;;;;4098202;28;20055;-84
2020/12/18 06:38:55;;;;;;;4.05;2.63;;;9.70;99.90;;;;;;4130502;28;20119;-85
2020/12/18 06:40:56;;;;;;;5.15;3.90;;;9.70;99.90;;;;;;4117058;28;20418;-84
2020/12/18 06:42:58;;;;;;;5.68;3.22;;;9.70;99.90;;;;;;4111910;28;20077;-84
2020/12/18 06:45:00;;;;;;;2.85;2.33;;;9.70;99.90;;;;;;4113580;28;20051;-84
2020/12/18 06:47:14;;;;;;;3.35;2.70;;;9.70;99.90;;;;;;4122074;28;20054;-84
2020/12/18 06:49:16;;;;;;;4.25;2.78;;;9.70;99.90;;;;;;4127079;28;20075;-84
2020/12/18 06:51:29;;;;;;;4.50;2.70;;;9.70;99.90;;;;;;4130373;28;20047;-85
2020/12/18 06:53:30;;;;;;;2.95;2.50;;;9.70;99.90;;;;;;4129557;28;20054;-85
2020/12/18 06:55:32;;;;;;;5.07;2.17;;;9.70;99.90;;;;;;4145563;28;20145;-84
2020/12/18 06:57:33;;;;;;;4.82;3.47;;;9.70;99.90;;;;;;4141120;28;20055;-85
2020/12/18 06:59:34;;;;;;;5.15;2.83;;;9.70;99.90;;;;;;4110578;28;20073;-84
2020/12/18 07:01:36;;;;;;;9.68;3.53;;;9.70;99.90;;;;;;4131941;28;20449;-84
2020/12/18 07:03:45;;;;;;;5.47;3.28;;;9.70;99.90;;;;;;4116111;28;20051;-83
2020/12/18 07:05:46;;;;;;;3.40;2.90;;;9.70;99.90;;;;;;4116881;28;20057;-84
2020/12/18 07:07:47;;;;;;;9.68;3.25;;;9.70;99.90;;;;;;4115603;28;20061;-84
2020/12/18 07:09:48;;;;;;;9.10;5.15;;;9.70;99.90;;;;;;4114605;28;20051;-83
2020/12/18 07:11:50;;;;;;;3.90;2.67;;;9.70;99.90;;;;;;4116228;28;20043;-85
2020/12/18 07:13:51;;;;;;;3.85;2.72;;;9.70;99.90;;;;;;4120333;28;20508;-83
2020/12/18 07:15:53;;;;;;;5.03;2.72;;;9.70;99.90;;;;;;4109720;28;20055;-83
2020/12/18 07:17:55;;;;;;;6.90;4.32;;;9.70;99.90;;;;;;4131917;28;20414;-84
2020/12/18 07:19:57;;;;;;;6.10;2.83;;;9.60;99.90;;;;;;4132390;28;20592;-85
2020/12/18 07:22:01;;;;;;;5.10;3.65;;;9.60;99.90;;;;;;4131766;28;20481;-83
2020/12/18 07:24:02;;;;;;;5.77;2.93;;;9.70;99.90;;;;;;4099968;28;20133;-84
2020/12/18 07:26:04;;;;;;;3.28;2.97;;;9.70;99.90;;;;;;4115388;28;20047;-85
2020/12/18 07:28:06;;;;;;;4.68;2.88;;;9.70;99.90;;;;;;4099477;28;20051;-84
2020/12/18 07:30:13;;;;;;;3.20;2.38;;;9.70;99.90;;;;;;4102794;28;20048;-84
2020/12/18 07:32:14;;;;;;;6.82;3.50;;;9.70;99.90;;;;;;4105305;28;20594;-83
2020/12/18 07:34:16;;;;;;;5.13;2.90;;;9.80;99.90;;;;;;4129460;28;20051;-85
2020/12/18 07:36:17;;;;;;;4.05;3.42;;;9.80;99.90;;;;;;4131627;28;20158;-86
2020/12/18 07:38:29;;;;;;;9.73;4.03;;;9.80;99.90;;;;;;4119364;28;20061;-87
2020/12/18 07:40:37;;;;;;;4.50;3.22;;;9.80;99.90;;;;;;4114955;28;20050;-86
2020/12/18 07:42:39;;;;;;;5.20;3.05;;;9.80;99.90;;;;;;4128051;28;20076;-87
2020/12/18 07:44:41;;;;;;;3.20;2.85;;;9.80;99.90;;;;;;4116485;28;20587;-86
2020/12/18 07:46:42;;;;;;;5.95;3.17;;;9.80;99.90;;;;;;4121576;28;20562;-86
2020/12/18 07:48:44;;;;;;;2.90;2.60;;;9.80;99.90;;;;;;4126227;28;20077;-87
2020/12/18 07:51:06;;;;;;;2.58;2.20;;;9.80;99.90;;;;;;4132128;28;20054;-86
2020/12/18 07:53:08;;;;;;;7.43;4.05;;;9.80;99.90;;;;;;4120355;28;20061;-86
2020/12/18 07:55:09;;;;;;;5.25;2.30;;;9.90;99.90;;;;;;4123953;28;20500;-86
2020/12/18 07:57:12;;;;;;;9.88;4.70;;;9.90;99.90;;;;;;4120020;28;20133;-86
2020/12/18 07:59:13;;;;;;;9.70;2.72;;;9.90;99.90;;;;;;4100578;28;20055;-86
2020/12/18 08:01:25;;;;;;;6.85;3.20;;;9.90;99.90;;;;;;4126783;28;20138;-85
2020/12/18 08:03:26;;;;;;;6.13;3.80;;;9.90;99.90;;;;;;4121558;28;20046;-86
2020/12/18 08:05:27;;;;;;;7.85;4.05;;;9.90;99.90;;;;;;4102017;28;20415;-85
2020/12/18 08:07:29;;;;;;;11.32;5.13;;;10.00;99.90;;;;;;4109947;28;20055;-85
2020/12/18 08:09:31;;;;;;;3.53;2.47;;;9.90;99.90;;;;;;4102035;28;20126;-85
2020/12/18 08:11:33;;;;;;;6.18;4.25;;;9.90;99.90;;;;;;4131487;28;20053;-86
2020/12/18 08:13:34;;;;;;;9.10;5.57;;;9.90;99.90;;;;;;4131216;28;20057;-85
2020/12/18 08:15:36;;;;;;;5.43;4.28;;;9.90;99.90;;;;;;4115155;28;20554;-86
2020/12/18 08:17:38;;;;;;;6.15;4.22;;;9.90;99.90;;;;;;4084495;28;20135;-85
2020/12/18 08:19:39;;;;;;;8.02;4.20;;;9.90;99.90;;;;;;4107203;28;20051;-86
2020/12/18 08:21:44;;;;;;;9.82;4.72;;;10.00;99.90;;;;;;4107981;28;20527;-85
2020/12/18 08:23:47;;;;;;;6.65;4.30;;;10.00;99.90;;;;;;4099878;28;20047;-86
2020/12/18 08:25:48;;;;;;;5.75;2.85;;;10.00;99.90;;;;;;4109255;28;20051;-86
2020/12/18 08:27:51;;;;;;;2.45;2.00;;;10.00;99.90;;;;;;4130889;28;20061;-86
2020/12/18 08:29:52;;;;;;;5.95;3.22;;;10.00;99.90;;;;;;4115744;28;20154;-86
2020/12/18 08:31:55;;;;;;;6.70;3.10;;;10.00;99.90;;;;;;4089696;28;20063;-86
2020/12/18 08:33:57;;;;;;;4.57;2.60;;;9.90;99.90;;;;;;4124039;28;20046;-86
2020/12/18 08:35:58;;;;;;;5.18;2.97;;;10.00;99.90;;;;;;4099405;28;20126;-86
2020/12/18 08:38:09;;;;;;;4.65;3.53;;;10.00;99.90;;;;;;4131749;28;20054;-86
2020/12/18 08:40:23;;;;;;;5.45;3.70;;;10.00;99.90;;;;;;4095049;28;20527;-86
2020/12/18 08:42:25;;;;;;;3.28;2.35;;;10.00;99.90;;;;;;4103486;28;20495;-85
2020/12/18 08:44:35;;;;;;;9.75;3.65;;;10.10;99.90;;;;;;4113610;28;20294;-85
2020/12/18 08:46:37;;;;;;;3.70;2.13;;;10.10;99.90;;;;;;4124015;28;20050;-86
2020/12/18 08:48:38;;;;;;;8.45;2.75;;;10.10;99.90;;;;;;4123120;28;20053;-86
2020/12/18 08:50:39;;;;;;;2.33;2.08;;;10.10;99.90;;;;;;4116779;28;20053;-85
2020/12/18 08:52:40;;;;;;;4.50;3.10;;;10.10;99.90;;;;;;4131329;28;20054;-86
2020/12/18 08:54:42;;;;;;;2.63;2.17;;;10.10;99.90;;;;;;4115046;28;20061;-86
2020/12/18 08:56:44;;;;;;;6.90;4.07;;;10.20;99.90;;;;;;4115955;28;20051;-86
2020/12/18 08:58:46;;;;;;;3.17;2.00;;;10.20;99.90;;;;;;4127782;28;20046;-84
2020/12/18 09:00:47;;;;;;;3.75;2.78;;;10.20;99.90;;;;;;4113161;28;20047;-86
2020/12/18 09:02:48;;;;;;;2.90;1.77;;;10.20;99.90;;;;;;4130604;28;20053;-88
2020/12/18 09:05:11;;;;;;;3.67;2.60;;;10.20;99.90;;;;;;4122623;28;20497;-87
2020/12/18 09:07:12;;;;;;;2.95;2.28;;;10.20;99.90;;;;;;4132253;28;20544;-91
2020/12/18 09:09:14;;;;;;;3.60;3.28;;;10.20;99.90;;;;;;4131587;28;20073;-86
2020/12/18 09:11:23;;;;;;;2.95;2.28;;;10.20;99.90;;;;;;4115521;28;20082;-89
2020/12/18 09:13:25;;;;;;;8.80;1.98;;;10.30;99.90;;;;;;4115026;28;20506;-89
2020/12/18 09:15:31;;;;;;;6.63;3.10;;;10.30;99.90;;;;;;4131867;28;20042;-87
2020/12/18 09:17:32;;;;;;;;;;;10.30;99.90;;;;;;4116637;28;20055;-86
2020/12/18 09:19:33;;;;;;;2.17;1.45;;;10.30;99.90;;;;;;4123373;28;19933;-89
2020/12/18 09:21:35;;;;;;;6.88;3.35;;;10.30;99.90;;;;;;4122507;28;20052;-88
2020/12/18 09:23:37;;;;;;;6.95;3.95;;;10.30;99.90;;;;;;4117006;28;20059;-88
2020/12/18 09:25:53;;;;;;;4.95;3.25;;;10.30;99.90;;;;;;4120304;28;20141;-88
2020/12/18 09:27:57;;;;;;;4.82;3.15;;;10.30;99.90;;;;;;4109459;28;20054;-89
2020/12/18 09:29:59;;;;;;;5.10;2.78;;;10.30;99.90;;;;;;4128718;28;20082;-89
2020/12/18 09:32:01;;;;;;;8.13;3.03;;;10.40;99.90;;;;;;4120956;28;20051;-88
2020/12/18 09:34:13;;;;;;;4.03;2.75;;;10.30;99.90;;;;;;4109905;28;20069;-89
2020/12/18 09:36:19;;;;;;;5.20;3.10;;;10.50;99.90;;;;;;4131239;28;20053;-87
2020/12/18 09:38:26;;;;;;;5.35;3.33;;;10.50;99.90;;;;;;4119550;28;20051;-89
2020/12/18 09:40:27;;;;;;;6.85;3.65;;;10.60;99.90;;;;;;4116311;28;20057;-89
2020/12/18 09:42:28;;;;;;;4.00;2.95;;;10.60;99.90;;;;;;4118156;28;20070;-87
2020/12/18 09:44:37;;;;;;;2.75;2.00;;;10.60;99.90;;;;;;4122050;28;20051;-88
2020/12/18 09:46:38;;;;;;;7.28;2.80;;;10.60;99.90;;;;;;4136360;28;20116;-90
2020/12/18 09:48:40;;;;;;;11.07;4.32;;;10.70;99.90;;;;;;4140535;28;20077;-89
2020/12/18 09:50:41;;;;;;;3.33;1.95;;;10.80;99.90;;;;;;4109819;28;20075;-89
2020/12/18 09:52:43;;;;;;;2.83;1.98;;;10.80;99.90;;;;;;4140916;28;20154;-89
2020/12/18 09:54:44;;;;;;;3.70;2.25;;;10.90;99.90;;;;;;4139263;28;20106;-85
2020/12/18 09:56:45;;;;;;;5.18;2.75;;;10.90;99.90;;;;;;4123356;28;20130;-88
2020/12/18 09:58:46;;;;;;;4.32;2.85;;;10.90;99.90;;;;;;4126959;28;20065;-88
2020/12/18 10:00:48;;;;;;;9.15;2.80;;;11.00;99.90;;;;;;4127012;28;20039;-88
2020/12/18 10:02:49;;;;;;;3.35;2.35;;;11.00;99.90;;;;;;4121497;28;20053;-88
2020/12/18 10:04:51;;;;;;;7.25;4.00;;;11.10;99.90;;;;;;4127075;28;20065;-89
2020/12/18 10:06:52;;;;;;;3.97;2.53;;;11.10;99.90;;;;;;4126930;28;20043;-89
2020/12/18 10:08:53;;;;;;;6.13;3.72;;;11.20;99.90;;;;;;4120040;28;20114;-89
2020/12/18 10:10:54;;;;;;;9.18;3.20;;;11.20;99.90;;;;;;4125320;28;20057;-88
2020/12/18 10:12:57;;;;;;;3.50;2.42;;;11.30;99.90;;;;;;4129822;28;20046;-90
2020/12/18 10:14:58;;;;;;;3.47;2.90;;;11.30;99.90;;;;;;4124745;28;20054;-89
2020/12/18 10:16:59;;;;;;;8.63;4.38;;;11.30;99.90;;;;;;4123568;28;20078;-89
2020/12/18 10:19:01;;;;;;;5.97;3.22;;;11.30;99.90;;;;;;4130763;28;20085;-89
2020/12/18 10:21:03;;;;;;;3.33;2.85;;;11.30;99.90;;;;;;4143026;28;20104;-88
2020/12/18 10:23:04;;;;;;;3.05;2.75;;;11.40;99.90;;;;;;4140405;28;20061;-88
2020/12/18 10:25:06;;;;;;;6.18;4.65;;;11.40;99.90;;;;;;4136975;28;20118;-89
2020/12/18 10:27:07;;;;;;;3.53;3.13;;;11.40;99.90;;;;;;4132378;28;20038;-89
2020/12/18 10:29:08;;;;;;;4.80;3.65;;;11.40;99.90;;;;;;4113408;28;20412;-89
2020/12/18 10:31:09;;;;;;;3.50;1.95;;;11.50;99.90;;;;;;4133555;28;20130;-86
2020/12/18 10:33:11;;;;;;;4.35;2.35;;;11.50;99.90;;;;;;4136440;28;20042;-89
2020/12/18 10:35:12;;;;;;;4.40;3.25;;;11.50;99.90;;;;;;4125182;28;20071;-88
2020/12/18 10:37:14;;;;;;;6.97;2.35;;;11.50;99.90;;;;;;4108082;28;20063;-89
2020/12/18 10:39:16;;;;;;;7.00;2.28;;;11.60;99.90;;;;;;4106794;28;20176;-90
2020/12/18 10:41:17;;;;;;;6.85;3.55;;;11.60;99.90;;;;;;4122428;28;20049;-89
2020/12/18 10:43:18;;;;;;;6.72;2.25;;;11.60;99.90;;;;;;4131828;28;20053;-90
2020/12/18 10:45:20;;;;;;;3.58;3.22;;;11.70;99.90;;;;;;4114534;28;20051;-91